Washington, Nebraska
Current Conditions -  °F | °C
As of 1:35 PM on Friday 24 Oct 2014 (Local Time) from KBTA Reporting Station
Clear Clear  
Wind Chill: 71°   Ceiling: Unl
Heat Index: 71°   Visibility: 10mi
Dew Point: 59°   Wind: 6mph
Humidity: 65%   Direction: 200°SSW
Pressure: 29.92"   Gusts: NA
Location:  41.4°N, 96.21°W
Report Text: KBTA 241835Z AUTO 20005KT 10SM CLR 22/15 A2992 RMK AO2 T02170148
Loading
Personal Weather Stations






























Interactive Weather Map
Tropical Storm Tracking
New forecast layout! Learn more

10-Day Weather Forecast

Advertisements
Track Severe Weather on mobile